createdAt,value
2023-05-09T00:01:27.681Z,3.28
2023-05-09T00:03:54.613Z,3.17
2023-05-09T00:06:21.727Z,2.72
2023-05-09T00:11:17.008Z,2.42
2023-05-09T00:13:44.391Z,2.90
2023-05-09T00:16:11.358Z,2.30
2023-05-09T00:18:38.279Z,2.28
2023-05-09T00:21:05.262Z,2.13
2023-05-09T00:23:32.111Z,2.97
2023-05-09T00:25:59.271Z,4.57
2023-05-09T00:28:27.583Z,3.03
2023-05-09T00:33:21.342Z,3.80
2023-05-09T00:35:48.695Z,3.25
2023-05-09T00:38:15.666Z,3.47
2023-05-09T00:40:42.581Z,2.83
2023-05-09T00:43:09.463Z,3.05
2023-05-09T00:45:37.744Z,7.22
2023-05-09T00:48:05.222Z,3.05
2023-05-09T00:50:32.267Z,3.40
2023-05-09T00:52:59.520Z,2.75
2023-05-09T00:55:27.316Z,2.92
2023-05-09T00:58:12.691Z,3.05
2023-05-09T01:00:41.763Z,3.90
2023-05-09T01:03:09.225Z,5.13
2023-05-09T01:05:42.845Z,3.33
2023-05-09T01:08:15.129Z,3.03
2023-05-09T01:10:45.780Z,3.63
2023-05-09T01:13:18.371Z,3.55
2023-05-09T01:15:52.593Z,3.20
2023-05-09T01:18:29.904Z,4.78
2023-05-09T01:21:01.906Z,3.60
2023-05-09T01:23:51.260Z,4.35
2023-05-09T01:26:22.148Z,3.13
2023-05-09T01:29:10.980Z,3.50
2023-05-09T01:31:40.418Z,3.70
2023-05-09T01:34:08.793Z,4.13
2023-05-09T01:39:02.862Z,3.33
2023-05-09T01:41:31.913Z,5.65
2023-05-09T01:44:01.030Z,4.75
2023-05-09T01:46:29.551Z,5.45
2023-05-09T01:48:57.855Z,3.95
2023-05-09T01:53:51.894Z,4.40
2023-05-09T01:56:19.869Z,4.40
2023-05-09T01:58:48.458Z,7.53
2023-05-09T02:01:15.781Z,4.40
2023-05-09T02:03:45.600Z,3.03
2023-05-09T02:06:12.996Z,4.43
2023-05-09T02:08:40.115Z,4.57
2023-05-09T02:11:07.722Z,4.38
2023-05-09T02:13:34.885Z,4.80
2023-05-09T02:16:01.872Z,5.05
2023-05-09T02:18:29.559Z,4.43
2023-05-09T02:20:57.982Z,3.80
2023-05-09T02:25:54.270Z,4.55
2023-05-09T02:28:23.646Z,5.10
2023-05-09T02:30:51.621Z,3.67
2023-05-09T02:33:18.610Z,3.83
2023-05-09T02:35:46.598Z,5.88
2023-05-09T02:38:15.497Z,2.83
2023-05-09T02:40:44.440Z,3.67
2023-05-09T02:43:11.646Z,3.70
2023-05-09T02:45:38.723Z,4.78
2023-05-09T02:48:08.757Z,4.50
2023-05-09T02:50:38.472Z,5.85
2023-05-09T02:53:06.232Z,5.13
2023-05-09T02:55:34.625Z,3.63
2023-05-09T02:58:11.988Z,4.25
2023-05-09T03:00:41.416Z,4.15
2023-05-09T03:03:09.004Z,6.95
2023-05-09T03:05:36.045Z,6.20
2023-05-09T03:08:03.058Z,4.07
2023-05-09T03:10:30.483Z,3.80
2023-05-09T03:12:58.744Z,3.03
2023-05-09T03:17:52.493Z,3.28
2023-05-09T03:20:21.701Z,3.85
2023-05-09T03:22:49.558Z,4.10
2023-05-09T03:25:17.176Z,3.15
2023-05-09T03:30:16.477Z,4.60
2023-05-09T03:32:45.838Z,4.13
2023-05-09T03:35:13.225Z,3.30
2023-05-09T03:37:40.585Z,3.63
2023-05-09T03:40:09.186Z,4.20
2023-05-09T03:45:11.141Z,3.38
2023-05-09T03:47:39.613Z,4.70
2023-05-09T03:52:37.265Z,5.30
2023-05-09T03:55:06.000Z,5.25
2023-05-09T03:57:35.886Z,4.65
2023-05-09T04:00:04.966Z,5.90
2023-05-09T04:02:42.354Z,6.72
2023-05-09T04:05:17.463Z,6.70
2023-05-09T04:07:45.582Z,8.77
2023-05-09T04:10:12.719Z,5.53
2023-05-09T04:12:39.785Z,7.40
2023-05-09T04:15:08.325Z,6.57
2023-05-09T04:17:36.095Z,6.28
2023-05-09T04:20:06.673Z,4.35
2023-05-09T04:22:33.614Z,4.25
2023-05-09T04:25:01.043Z,7.15
2023-05-09T04:27:28.344Z,5.25
2023-05-09T04:29:55.865Z,5.30
2023-05-09T04:32:23.355Z,3.88
2023-05-09T04:34:50.944Z,3.38
2023-05-09T04:37:23.751Z,4.50
2023-05-09T04:39:50.864Z,3.22
2023-05-09T04:42:26.258Z,4.00
2023-05-09T04:44:53.435Z,4.90
2023-05-09T04:47:22.061Z,3.88
2023-05-09T04:49:48.974Z,3.30
2023-05-09T04:52:16.853Z,5.10
2023-05-09T04:54:45.188Z,3.25
2023-05-09T04:57:18.059Z,3.42
2023-05-09T04:59:50.715Z,3.35
2023-05-09T05:02:18.708Z,2.50
2023-05-09T05:04:47.352Z,3.55
2023-05-09T05:07:14.990Z,4.68
2023-05-09T05:09:45.607Z,3.35
2023-05-09T05:12:12.489Z,4.38
2023-05-09T05:14:41.273Z,3.45
2023-05-09T05:17:10.152Z,3.65
2023-05-09T05:19:37.076Z,2.90
2023-05-09T05:22:06.007Z,3.72
2023-05-09T05:24:33.885Z,4.93
2023-05-09T05:27:03.234Z,3.33
2023-05-09T05:29:30.089Z,4.10
2023-05-09T05:31:57.094Z,5.15
2023-05-09T05:34:24.175Z,4.85
2023-05-09T05:36:51.558Z,4.68
2023-05-09T05:39:18.686Z,4.32
2023-05-09T05:41:45.618Z,5.22
2023-05-09T05:44:13.943Z,3.55
2023-05-09T05:46:41.422Z,2.78
2023-05-09T05:49:08.417Z,2.15
2023-05-09T05:51:35.372Z,2.17
2023-05-09T05:56:30.829Z,1.63
2023-05-09T05:58:58.205Z,3.78
2023-05-09T06:01:26.820Z,4.40
2023-05-09T06:03:56.078Z,2.05
2023-05-09T06:06:26.691Z,2.15
2023-05-09T06:08:55.485Z,6.68
2023-05-09T06:11:23.507Z,3.83
2023-05-09T06:13:50.400Z,1.83
2023-05-09T06:16:19.855Z,1.67
2023-05-09T06:18:53.334Z,1.60
2023-05-09T06:21:21.979Z,4.13
2023-05-09T06:24:05.095Z,2.55
2023-05-09T06:26:35.544Z,1.63
2023-05-09T06:29:02.392Z,1.13
2023-05-09T06:31:29.888Z,0.98
2023-05-09T06:33:58.292Z,1.63
2023-05-09T06:38:51.928Z,1.15
2023-05-09T06:41:18.811Z,1.88
2023-05-09T06:43:45.797Z,1.20
2023-05-09T06:46:12.700Z,0.77
2023-05-09T06:48:39.720Z,0.93
2023-05-09T06:51:08.371Z,1.55
2023-05-09T06:53:35.261Z,2.40
2023-05-09T06:56:02.177Z,1.52
2023-05-09T06:58:29.262Z,1.42
2023-05-09T07:00:56.236Z,2.92
2023-05-09T07:03:23.934Z,1.90
2023-05-09T07:05:52.461Z,1.27
2023-05-09T07:08:20.732Z,0.95
2023-05-09T07:13:14.403Z,2.17
2023-05-09T07:15:42.998Z,1.80
2023-05-09T07:18:10.487Z,1.20
2023-05-09T07:20:37.433Z,0.60
2023-05-09T07:23:04.407Z,50.70
2023-05-09T07:25:32.738Z,41.97
2023-05-09T07:28:00.196Z,5.25
2023-05-09T07:30:27.316Z,3.17
2023-05-09T07:32:54.219Z,1.00
2023-05-09T07:35:21.572Z,1.17
2023-05-09T07:37:48.510Z,2.17
2023-05-09T07:40:15.920Z,1.13
2023-05-09T07:42:50.082Z,2.70
2023-05-09T07:45:18.822Z,1.60
2023-05-09T07:47:47.001Z,0.82
2023-05-09T07:50:13.951Z,1.70
2023-05-09T07:52:40.933Z,1.02
2023-05-09T07:55:08.543Z,0.90
2023-05-09T07:57:35.997Z,0.77
2023-05-09T08:00:06.462Z,2.08
2023-05-09T08:02:40.625Z,1.98
2023-05-09T08:05:11.501Z,1.08
2023-05-09T08:07:39.338Z,1.17
2023-05-09T08:10:07.552Z,2.05
2023-05-09T08:15:01.220Z,0.52
2023-05-09T08:17:29.601Z,1.25
2023-05-09T08:19:56.615Z,0.73
2023-05-09T08:22:24.720Z,1.48
2023-05-09T08:24:51.683Z,0.85
2023-05-09T08:27:18.582Z,0.47
2023-05-09T08:29:45.507Z,2.25
2023-05-09T08:32:12.659Z,1.02
2023-05-09T08:34:41.071Z,1.67
2023-05-09T08:37:08.063Z,1.75
2023-05-09T08:39:35.355Z,0.95
2023-05-09T08:42:02.960Z,1.23
2023-05-09T08:44:31.349Z,0.95
2023-05-09T08:47:00.727Z,0.63
2023-05-09T08:49:28.192Z,2.10
2023-05-09T08:51:57.046Z,2.35
2023-05-09T08:54:24.725Z,1.52
2023-05-09T08:56:51.807Z,1.17
2023-05-09T08:59:19.505Z,1.02
2023-05-09T09:01:46.799Z,0.93
2023-05-09T09:04:13.822Z,2.20
2023-05-09T09:06:41.059Z,1.13
2023-05-09T09:09:09.567Z,1.15
2023-05-09T09:11:37.739Z,2.25
2023-05-09T09:14:07.461Z,0.70
2023-05-09T09:16:36.282Z,1.27
2023-05-09T09:19:05.634Z,0.77
2023-05-09T09:21:33.013Z,0.80
2023-05-09T09:24:00.500Z,1.10
2023-05-09T09:26:31.748Z,0.88
2023-05-09T09:28:58.726Z,3.03
2023-05-09T09:31:28.536Z,1.60
2023-05-09T09:33:59.504Z,1.35
2023-05-09T09:36:27.788Z,1.33
2023-05-09T09:38:57.838Z,1.25
2023-05-09T09:41:32.153Z,3.67
2023-05-09T09:43:59.170Z,1.48
2023-05-09T09:46:26.305Z,2.38
2023-05-09T09:48:56.784Z,1.58
2023-05-09T09:51:27.679Z,1.83
2023-05-09T09:53:54.584Z,4.47
2023-05-09T09:56:22.285Z,3.42
2023-05-09T09:58:50.596Z,2.55
2023-05-09T10:03:45.927Z,2.25
2023-05-09T10:06:13.922Z,2.40
2023-05-09T10:08:41.177Z,2.95
2023-05-09T10:11:08.857Z,1.92
2023-05-09T10:13:36.611Z,1.42
2023-05-09T10:16:06.217Z,2.03
2023-05-09T10:18:33.932Z,3.03
2023-05-09T10:21:02.786Z,2.45
2023-05-09T10:23:31.423Z,2.53
2023-05-09T10:26:06.745Z,4.43
2023-05-09T10:28:35.906Z,3.83
2023-05-09T10:31:12.891Z,2.17
2023-05-09T10:33:43.608Z,3.35
2023-05-09T10:36:10.917Z,2.03
2023-05-09T10:38:37.861Z,2.78
2023-05-09T10:41:05.576Z,3.00
2023-05-09T10:43:36.125Z,3.05
2023-05-09T10:46:03.959Z,2.35
2023-05-09T10:48:51.184Z,2.40
2023-05-09T10:51:18.345Z,5.55
2023-05-09T10:53:46.640Z,3.80
2023-05-09T10:56:24.123Z,2.75
2023-05-09T10:58:51.004Z,4.22
2023-05-09T11:01:30.586Z,2.25
2023-05-09T11:04:00.253Z,4.45
2023-05-09T11:06:46.250Z,2.97
2023-05-09T11:09:34.656Z,3.95
2023-05-09T11:12:09.193Z,2.50
2023-05-09T11:14:42.385Z,5.75
2023-05-09T11:17:11.091Z,2.90
2023-05-09T11:20:01.912Z,4.60
2023-05-09T11:22:30.840Z,5.60
2023-05-09T11:25:04.612Z,3.40
2023-05-09T11:27:42.481Z,3.70
2023-05-09T11:30:11.154Z,2.58
2023-05-09T11:32:44.056Z,3.75
2023-05-09T11:35:17.899Z,2.85
2023-05-09T11:37:49.794Z,2.72
2023-05-09T11:40:17.657Z,2.55
2023-05-09T11:42:45.672Z,3.65
2023-05-09T11:45:15.750Z,2.55
2023-05-09T11:47:43.097Z,2.00
2023-05-09T11:50:13.372Z,2.17
2023-05-09T11:52:40.721Z,3.97
2023-05-09T11:55:10.927Z,3.05
2023-05-09T11:57:40.881Z,3.38
2023-05-09T12:00:10.427Z,3.78
2023-05-09T12:02:37.860Z,2.97
2023-05-09T12:05:09.458Z,5.72
2023-05-09T12:07:39.514Z,4.82
2023-05-09T12:10:08.693Z,3.88
2023-05-09T12:12:36.356Z,4.47
2023-05-09T12:15:04.768Z,5.85
2023-05-09T12:17:32.034Z,4.15
2023-05-09T12:20:00.352Z,6.05
2023-05-09T12:24:56.147Z,4.25
2023-05-09T12:27:23.307Z,4.43
2023-05-09T12:29:50.906Z,4.35
2023-05-09T12:32:18.501Z,5.13
2023-05-09T12:34:47.743Z,6.28
2023-05-09T12:37:16.807Z,4.18
2023-05-09T12:39:44.675Z,4.88
2023-05-09T12:42:15.794Z,7.05
2023-05-09T12:44:49.193Z,8.18
2023-05-09T12:47:16.325Z,6.18
2023-05-09T12:49:43.298Z,4.93
2023-05-09T12:52:18.179Z,4.35
2023-05-09T12:54:46.341Z,4.18
2023-05-09T12:57:22.912Z,3.47
2023-05-09T12:59:50.150Z,6.03
2023-05-09T13:02:17.787Z,4.93
2023-05-09T13:04:44.864Z,4.68
2023-05-09T13:07:11.827Z,7.72
2023-05-09T13:09:54.471Z,6.63
2023-05-09T13:12:23.212Z,6.88
2023-05-09T13:14:50.240Z,7.00
2023-05-09T13:17:17.170Z,8.57
2023-05-09T13:19:44.045Z,9.30
2023-05-09T13:22:12.354Z,7.47
2023-05-09T13:24:39.516Z,8.13
2023-05-09T13:27:06.474Z,8.20
2023-05-09T13:29:34.761Z,8.93
2023-05-09T13:32:01.746Z,9.20
2023-05-09T13:34:28.790Z,7.35
2023-05-09T13:36:55.710Z,8.13
2023-05-09T13:39:22.720Z,8.77
2023-05-09T13:41:51.320Z,5.47
2023-05-09T13:44:18.361Z,7.03
2023-05-09T13:46:46.936Z,8.02
2023-05-09T13:49:13.930Z,6.55
2023-05-09T13:51:41.112Z,5.03
2023-05-09T13:54:27.004Z,4.50
2023-05-09T13:56:53.951Z,4.97
2023-05-09T13:59:20.878Z,4.93
2023-05-09T14:01:49.208Z,5.55
2023-05-09T14:04:16.334Z,3.45
2023-05-09T14:06:48.182Z,4.22
2023-05-09T14:09:15.744Z,5.28
2023-05-09T14:11:42.848Z,4.00
2023-05-09T14:14:09.837Z,2.92
2023-05-09T14:16:36.781Z,4.45
2023-05-09T14:19:05.107Z,5.25
2023-05-09T14:21:32.042Z,4.50
2023-05-09T14:23:59.011Z,3.28
2023-05-09T14:26:26.746Z,3.00
2023-05-09T14:28:54.132Z,3.58
2023-05-09T14:31:21.172Z,2.40
2023-05-09T14:33:48.129Z,3.40
2023-05-09T14:36:16.761Z,3.17
2023-05-09T14:38:44.306Z,2.53
2023-05-09T14:41:11.388Z,2.97
2023-05-09T14:43:38.304Z,3.28
2023-05-09T14:46:05.599Z,3.75
2023-05-09T14:48:32.845Z,2.92
2023-05-09T14:51:00.266Z,2.80
2023-05-09T14:53:28.754Z,1.92
2023-05-09T14:55:56.112Z,2.92
2023-05-09T14:58:23.646Z,2.10
2023-05-09T15:00:50.812Z,2.75
2023-05-09T15:03:17.972Z,2.08
2023-05-09T15:05:44.972Z,2.35
2023-05-09T15:08:11.936Z,3.40
2023-05-09T15:10:40.376Z,4.40
2023-05-09T15:13:07.723Z,2.65
2023-05-09T15:15:34.710Z,3.22
2023-05-09T15:18:02.621Z,5.03
2023-05-09T15:20:29.612Z,4.32
2023-05-09T15:22:56.619Z,2.78
2023-05-09T15:25:23.701Z,1.92
2023-05-09T15:27:51.942Z,2.40
2023-05-09T15:30:18.985Z,2.60
2023-05-09T15:32:46.052Z,4.13
2023-05-09T15:35:13.733Z,3.50
2023-05-09T15:37:40.629Z,2.58
2023-05-09T15:40:09.288Z,3.80
2023-05-09T15:42:36.574Z,2.55
2023-05-09T15:45:05.521Z,1.83
2023-05-09T15:47:32.715Z,2.50
2023-05-09T15:49:59.688Z,1.40
2023-05-09T15:52:27.837Z,2.30
2023-05-09T15:54:55.007Z,3.55
2023-05-09T15:57:22.065Z,1.63
2023-05-09T15:59:48.983Z,1.02
2023-05-09T16:02:17.400Z,3.38
2023-05-09T16:04:44.426Z,1.90
2023-05-09T16:07:11.636Z,2.65
2023-05-09T16:09:38.660Z,1.98
2023-05-09T16:12:05.780Z,2.33
2023-05-09T16:14:32.775Z,3.80
2023-05-09T16:16:59.731Z,2.78
2023-05-09T16:19:27.998Z,2.85
2023-05-09T16:21:55.003Z,1.98
2023-05-09T16:24:21.990Z,1.80
2023-05-09T16:26:48.884Z,3.50
2023-05-09T16:29:15.813Z,2.13
2023-05-09T16:31:44.955Z,1.70
2023-05-09T16:34:12.093Z,1.65
2023-05-09T16:36:40.446Z,2.50
2023-05-09T16:41:34.875Z,7.18
2023-05-09T16:44:01.740Z,1.80
2023-05-09T16:46:28.678Z,2.28
2023-05-09T16:48:55.857Z,1.35
2023-05-09T16:51:22.825Z,4.53
2023-05-09T16:53:51.237Z,2.20
2023-05-09T16:56:18.072Z,2.15
2023-05-09T16:58:44.992Z,2.90
2023-05-09T17:01:12.064Z,1.65
2023-05-09T17:03:38.982Z,2.22
2023-05-09T17:06:06.530Z,4.47
2023-05-09T17:08:33.433Z,3.03
2023-05-09T17:11:01.701Z,1.45
2023-05-09T17:13:28.658Z,1.70
2023-05-09T17:15:55.913Z,3.83
2023-05-09T17:18:35.896Z,2.67
2023-05-09T17:21:04.551Z,1.80
2023-05-09T17:23:31.938Z,2.08
2023-05-09T17:25:58.845Z,2.47
2023-05-09T17:28:27.204Z,2.45
2023-05-09T17:30:54.143Z,3.10
2023-05-09T17:33:21.341Z,2.78
2023-05-09T17:35:49.655Z,2.45
2023-05-09T17:38:16.792Z,2.25
2023-05-09T17:40:44.272Z,2.22
2023-05-09T17:43:11.172Z,3.08
2023-05-09T17:45:39.627Z,3.25
2023-05-09T17:48:07.244Z,4.03
2023-05-09T17:50:34.466Z,2.40
2023-05-09T17:53:01.488Z,3.97
2023-05-09T17:55:28.901Z,3.67
2023-05-09T17:57:55.756Z,4.00
2023-05-09T18:00:22.714Z,3.00
2023-05-09T18:02:51.630Z,2.38
2023-05-09T18:05:18.753Z,3.63
2023-05-09T18:07:45.683Z,4.53
2023-05-09T18:10:12.986Z,2.95
2023-05-09T18:12:40.231Z,3.42
2023-05-09T18:15:08.435Z,3.92
2023-05-09T18:17:35.483Z,4.22
2023-05-09T18:20:04.834Z,4.10
2023-05-09T18:22:31.950Z,4.38
2023-05-09T18:24:59.141Z,4.07
2023-05-09T18:27:26.116Z,3.90
2023-05-09T18:29:52.982Z,5.45
2023-05-09T18:32:20.732Z,5.47
2023-05-09T18:34:48.587Z,4.03
2023-05-09T18:37:17.668Z,6.85
2023-05-09T18:39:44.917Z,5.13
2023-05-09T18:42:12.933Z,4.53
2023-05-09T18:44:41.577Z,6.43
2023-05-09T18:47:08.577Z,6.85
2023-05-09T18:49:35.590Z,10.45
2023-05-09T18:52:02.662Z,10.32
2023-05-09T18:54:31.068Z,15.35
2023-05-09T18:59:25.047Z,10.45
2023-05-09T19:01:52.072Z,13.43
2023-05-09T19:04:19.618Z,14.38
2023-05-09T19:06:46.930Z,15.40
2023-05-09T19:09:13.955Z,12.70
2023-05-09T19:11:42.340Z,10.13
2023-05-09T19:14:09.323Z,6.65
2023-05-09T19:16:36.314Z,5.38
2023-05-09T19:19:03.310Z,6.65
2023-05-09T19:21:30.346Z,4.72
2023-05-09T19:23:57.270Z,5.05
2023-05-09T19:26:24.193Z,6.78
2023-05-09T19:28:52.558Z,5.35
2023-05-09T19:31:20.562Z,4.57
2023-05-09T19:33:50.133Z,6.35
2023-05-09T19:36:18.381Z,5.88
2023-05-09T19:38:45.555Z,5.30
2023-05-09T19:41:13.959Z,6.80
2023-05-09T19:43:41.076Z,4.65
2023-05-09T19:46:09.482Z,5.68
2023-05-09T19:48:36.474Z,6.07
2023-05-09T19:51:04.124Z,8.60
2023-05-09T19:53:31.033Z,9.50
2023-05-09T19:55:57.992Z,9.20
2023-05-09T19:58:24.838Z,6.47
2023-05-09T20:00:51.965Z,6.05
2023-05-09T20:03:20.504Z,4.97
2023-05-09T20:05:47.504Z,5.05
2023-05-09T20:08:14.497Z,4.28
2023-05-09T20:10:41.363Z,5.03
2023-05-09T20:13:08.543Z,5.75
2023-05-09T20:15:35.496Z,5.22
2023-05-09T20:18:03.725Z,4.45
2023-05-09T20:20:32.283Z,4.80
2023-05-09T20:22:59.155Z,4.95
2023-05-09T20:25:26.112Z,4.38
2023-05-09T20:27:53.018Z,5.07
2023-05-09T20:30:20.058Z,3.92
2023-05-09T20:32:47.044Z,4.97
2023-05-09T20:35:13.997Z,5.22
2023-05-09T20:37:42.282Z,4.82
2023-05-09T20:40:10.323Z,5.43
2023-05-09T20:42:37.923Z,6.97
2023-05-09T20:45:05.470Z,6.15
2023-05-09T20:47:32.647Z,4.68
2023-05-09T20:49:59.687Z,3.85
2023-05-09T20:52:26.760Z,4.28
2023-05-09T20:54:55.077Z,4.82
2023-05-09T20:57:22.095Z,3.80
2023-05-09T20:59:48.997Z,7.07
2023-05-09T21:02:15.936Z,5.05
2023-05-09T21:04:42.985Z,5.97
2023-05-09T21:07:10.061Z,6.53
2023-05-09T21:09:37.109Z,5.28
2023-05-09T21:12:05.960Z,4.68
2023-05-09T21:14:32.919Z,5.32
2023-05-09T21:17:00.059Z,4.22
2023-05-09T21:19:27.801Z,6.15
2023-05-09T21:21:54.793Z,6.15
2023-05-09T21:24:21.680Z,7.38
2023-05-09T21:26:48.638Z,5.47
2023-05-09T21:29:16.966Z,6.15
2023-05-09T21:31:44.034Z,6.05
2023-05-09T21:34:10.995Z,5.10
2023-05-09T21:36:41.008Z,4.82
2023-05-09T21:39:11.757Z,7.13
2023-05-09T21:41:40.042Z,6.55
2023-05-09T21:44:11.349Z,6.90
2023-05-09T21:46:40.025Z,6.22
2023-05-09T21:49:07.094Z,5.82
2023-05-09T21:51:34.268Z,7.93
2023-05-09T21:54:01.360Z,6.78
2023-05-09T21:56:28.420Z,6.70
2023-05-09T21:58:55.503Z,5.78
2023-05-09T22:01:22.543Z,5.82
2023-05-09T22:03:51.613Z,6.68
2023-05-09T22:06:18.673Z,7.05
2023-05-09T22:08:45.814Z,7.05
2023-05-09T22:11:14.235Z,6.95
2023-05-09T22:13:42.538Z,9.10
2023-05-09T22:16:09.447Z,6.78
2023-05-09T22:18:36.419Z,7.15
2023-05-09T22:21:05.556Z,6.63
2023-05-09T22:23:32.422Z,6.18
2023-05-09T22:25:59.381Z,5.75
2023-05-09T22:28:27.464Z,4.57
2023-05-09T22:30:54.353Z,7.45
2023-05-09T22:33:21.381Z,5.38
2023-05-09T22:35:48.257Z,5.00
2023-05-09T22:38:16.568Z,4.45
2023-05-09T22:40:43.759Z,4.43
2023-05-09T22:43:11.212Z,3.65
2023-05-09T22:45:38.296Z,4.03
2023-05-09T22:48:06.052Z,2.72
2023-05-09T22:50:32.977Z,3.92
2023-05-09T22:53:00.256Z,1.50
2023-05-09T22:55:28.800Z,3.47
2023-05-09T22:57:55.826Z,3.85
2023-05-09T23:00:22.845Z,2.80
2023-05-09T23:02:49.954Z,2.17
2023-05-09T23:05:16.987Z,3.22
2023-05-09T23:07:44.435Z,2.88
2023-05-09T23:10:11.503Z,2.63
2023-05-09T23:12:39.828Z,2.70
2023-05-09T23:15:07.941Z,3.17
2023-05-09T23:17:34.956Z,3.22
2023-05-09T23:20:01.964Z,2.60
2023-05-09T23:22:29.091Z,2.67
2023-05-09T23:24:56.091Z,2.63
2023-05-09T23:27:23.055Z,3.63
2023-05-09T23:29:51.443Z,3.92
2023-05-09T23:32:18.346Z,2.60
2023-05-09T23:34:45.478Z,3.47
2023-05-09T23:37:12.483Z,3.65
2023-05-09T23:39:39.447Z,4.03
2023-05-09T23:42:06.398Z,4.22
2023-05-09T23:44:33.445Z,4.55
2023-05-09T23:47:02.321Z,4.15
2023-05-09T23:49:29.225Z,4.95
2023-05-09T23:51:56.099Z,4.72
2023-05-09T23:54:24.631Z,4.68
2023-05-09T23:56:51.671Z,4.40
2023-05-09T23:59:18.656Z,4.28
